Gabala International Airport


Codes: UBBQ/GBB
Name: Gabala International Airport
City: Gabala
Country: Azerbaijan
Elevation: 935 ft.
Wikipedia:

Photos at Gabala International Airport


   Photos courtesy of SpottingLog. You can add your own sightings and photos by signing up for a free trial today.



No photos found.

Weather at Gabala International Airport


Time (UTC)DescriptionTempratureWindCloud coverageVisibilityPressureHumidity
26-Jun-2024 00:00Light Rain22°C4 mph, N40%10000m1006hPa83%
26-Jun-2024 03:00Light Rain22°C2 mph, N60%10000m1006hPa80%
26-Jun-2024 06:00Moderate Rain25°C2 mph, SW80%10000m1006hPa67%
26-Jun-2024 09:00Light Rain31°C7 mph, S30%10000m1004hPa41%
26-Jun-2024 12:00Light Rain28°C4 mph, S59%10000m1003hPa51%
26-Jun-2024 15:00Moderate Rain22°C4 mph, NW92%9165m1004hPa84%
26-Jun-2024 18:00Moderate Rain19°C9 mph, E96%10000m1008hPa84%
26-Jun-2024 21:00Moderate Rain16°C7 mph, NE100%4960m1009hPa92%
27-Jun-2024 00:00Moderate Rain17°C9 mph, SE100%10000m1010hPa92%
27-Jun-2024 03:00Light Rain18°C9 mph, S79%10000m1012hPa84%
27-Jun-2024 06:00Light Rain18°C7 mph, SE85%10000m1014hPa80%
27-Jun-2024 09:00Light Rain18°C7 mph, SE100%10000m1014hPa83%
27-Jun-2024 12:00Light Rain21°C4 mph, SE96%10000m1013hPa65%
27-Jun-2024 15:00Broken Clouds21°C4 mph, SE77%10000m1013hPa65%
27-Jun-2024 18:00Light Rain18°C4 mph, E46%10000m1015hPa75%
27-Jun-2024 21:00Broken Clouds19°C2 mph, E82%10000m1014hPa67%
28-Jun-2024 00:00Overcast Clouds18°C2 mph, NE86%10000m1013hPa65%
28-Jun-2024 03:00Clear Sky19°C2 mph, NE6%10000m1013hPa62%
28-Jun-2024 06:00Clear Sky23°C4 mph, SW2%10000m1013hPa47%
28-Jun-2024 09:00Clear Sky26°C7 mph, SW4%10000m1010hPa39%
28-Jun-2024 12:00Few Clouds28°C7 mph, SW11%10000m1009hPa36%
28-Jun-2024 15:00Scattered Clouds25°C7 mph, S43%10000m1009hPa45%
28-Jun-2024 18:00Broken Clouds22°C7 mph, SE61%10000m1011hPa58%
28-Jun-2024 21:00Broken Clouds20°C4 mph, E58%10000m1011hPa61%
29-Jun-2024 00:00Scattered Clouds19°C4 mph, NE46%10000m1011hPa62%
29-Jun-2024 03:00Clear Sky21°C2 mph, NE6%10000m1011hPa55%
29-Jun-2024 06:00Clear Sky25°C7 mph, S3%10000m1011hPa44%
29-Jun-2024 09:00Few Clouds28°C7 mph, S24%10000m1011hPa39%
29-Jun-2024 12:00Broken Clouds28°C4 mph, SE53%10000m1010hPa40%
29-Jun-2024 15:00Overcast Clouds25°C7 mph, SE100%10000m1012hPa52%
29-Jun-2024 18:00Light Rain23°C2 mph, SE100%10000m1014hPa58%
29-Jun-2024 21:00Overcast Clouds22°C0 mph, N100%10000m1014hPa60%
30-Jun-2024 00:00Overcast Clouds21°C2 mph, SW100%10000m1014hPa62%
30-Jun-2024 03:00Overcast Clouds21°C2 mph, SE100%10000m1015hPa65%
30-Jun-2024 06:00Overcast Clouds22°C0 mph, SW100%10000m1015hPa64%
30-Jun-2024 09:00Overcast Clouds23°C2 mph, W100%10000m1014hPa57%
30-Jun-2024 12:00Broken Clouds26°C2 mph, S84%10000m1012hPa43%
30-Jun-2024 15:00Broken Clouds25°C4 mph, SE68%10000m1012hPa50%
30-Jun-2024 18:00Broken Clouds23°C4 mph, SE80%10000m1013hPa54%
30-Jun-2024 21:00Overcast Clouds22°C2 mph, E100%10000m1014hPa60%